sensor_id;sensor_type;location;lat;lon;timestamp;P1;durP1;ratioP1;P2;durP2;ratioP2
7233;SDS011;3658;47.992;10.158;2022-08-14T00:01:20;3.00;;;2.70;;
7233;SDS011;3658;47.992;10.158;2022-08-14T00:03:47;2.80;;;2.60;;
7233;SDS011;3658;47.992;10.158;2022-08-14T00:06:15;2.97;;;2.67;;
7233;SDS011;3658;47.992;10.158;2022-08-14T00:08:42;3.20;;;2.87;;
7233;SDS011;3658;47.992;10.158;2022-08-14T00:11:09;3.03;;;2.63;;
7233;SDS011;3658;47.992;10.158;2022-08-14T00:13:36;2.90;;;2.70;;
7233;SDS011;3658;47.992;10.158;2022-08-14T00:16:04;3.17;;;2.97;;
7233;SDS011;3658;47.992;10.158;2022-08-14T00:18:32;3.00;;;2.70;;
7233;SDS011;3658;47.992;10.158;2022-08-14T00:20:59;3.07;;;2.77;;
7233;SDS011;3658;47.992;10.158;2022-08-14T00:23:26;3.10;;;2.87;;
7233;SDS011;3658;47.992;10.158;2022-08-14T00:25:54;2.83;;;2.50;;
7233;SDS011;3658;47.992;10.158;2022-08-14T00:28:21;2.80;;;2.60;;
7233;SDS011;3658;47.992;10.158;2022-08-14T00:30:51;2.70;;;2.50;;
7233;SDS011;3658;47.992;10.158;2022-08-14T00:33:22;2.90;;;2.70;;
7233;SDS011;3658;47.992;10.158;2022-08-14T00:35:50;2.63;;;2.40;;
7233;SDS011;3658;47.992;10.158;2022-08-14T00:38:17;2.63;;;2.43;;
7233;SDS011;3658;47.992;10.158;2022-08-14T00:40:45;2.60;;;2.40;;
7233;SDS011;3658;47.992;10.158;2022-08-14T00:43:12;2.57;;;2.37;;
7233;SDS011;3658;47.992;10.158;2022-08-14T00:45:40;2.70;;;2.40;;
7233;SDS011;3658;47.992;10.158;2022-08-14T00:48:08;2.93;;;2.63;;
7233;SDS011;3658;47.992;10.158;2022-08-14T00:50:37;2.60;;;2.40;;
7233;SDS011;3658;47.992;10.158;2022-08-14T00:53:04;2.83;;;2.50;;
7233;SDS011;3658;47.992;10.158;2022-08-14T00:55:34;2.87;;;2.60;;
7233;SDS011;3658;47.992;10.158;2022-08-14T00:58:05;2.67;;;2.37;;
7233;SDS011;3658;47.992;10.158;2022-08-14T01:00:50;2.90;;;2.60;;
7233;SDS011;3658;47.992;10.158;2022-08-14T01:03:18;3.17;;;2.53;;
7233;SDS011;3658;47.992;10.158;2022-08-14T01:05:48;2.53;;;2.33;;
7233;SDS011;3658;47.992;10.158;2022-08-14T01:08:18;2.67;;;2.47;;
7233;SDS011;3658;47.992;10.158;2022-08-14T01:10:46;2.50;;;2.30;;
7233;SDS011;3658;47.992;10.158;2022-08-14T01:13:18;2.60;;;2.40;;
7233;SDS011;3658;47.992;10.158;2022-08-14T01:15:47;2.70;;;2.50;;
7233;SDS011;3658;47.992;10.158;2022-08-14T01:18:16;2.63;;;2.43;;
7233;SDS011;3658;47.992;10.158;2022-08-14T01:21:03;2.50;;;2.30;;
7233;SDS011;3658;47.992;10.158;2022-08-14T01:23:38;2.40;;;2.20;;
7233;SDS011;3658;47.992;10.158;2022-08-14T01:26:06;2.50;;;2.30;;
7233;SDS011;3658;47.992;10.158;2022-08-14T01:28:34;2.50;;;2.30;;
7233;SDS011;3658;47.992;10.158;2022-08-14T01:31:06;2.60;;;2.40;;
7233;SDS011;3658;47.992;10.158;2022-08-14T01:33:36;2.50;;;2.30;;
7233;SDS011;3658;47.992;10.158;2022-08-14T01:36:08;3.00;;;2.40;;
7233;SDS011;3658;47.992;10.158;2022-08-14T01:38:38;2.40;;;2.20;;
7233;SDS011;3658;47.992;10.158;2022-08-14T01:41:07;2.77;;;2.57;;
7233;SDS011;3658;47.992;10.158;2022-08-14T01:43:44;2.50;;;2.30;;
7233;SDS011;3658;47.992;10.158;2022-08-14T01:46:14;2.50;;;2.27;;
7233;SDS011;3658;47.992;10.158;2022-08-14T01:48:41;2.20;;;2.03;;
7233;SDS011;3658;47.992;10.158;2022-08-14T01:51:10;2.60;;;2.37;;
7233;SDS011;3658;47.992;10.158;2022-08-14T01:53:40;2.50;;;2.30;;
7233;SDS011;3658;47.992;10.158;2022-08-14T01:56:09;2.50;;;2.30;;
7233;SDS011;3658;47.992;10.158;2022-08-14T01:58:36;2.30;;;2.10;;
7233;SDS011;3658;47.992;10.158;2022-08-14T02:01:04;2.23;;;2.03;;
7233;SDS011;3658;47.992;10.158;2022-08-14T02:03:31;2.40;;;2.20;;
7233;SDS011;3658;47.992;10.158;2022-08-14T02:06:05;2.37;;;2.17;;
7233;SDS011;3658;47.992;10.158;2022-08-14T02:08:33;2.10;;;1.90;;
7233;SDS011;3658;47.992;10.158;2022-08-14T02:11:04;2.30;;;2.10;;
7233;SDS011;3658;47.992;10.158;2022-08-14T02:13:47;2.50;;;2.30;;
7233;SDS011;3658;47.992;10.158;2022-08-14T02:16:17;2.60;;;2.40;;
7233;SDS011;3658;47.992;10.158;2022-08-14T02:18:45;2.80;;;2.60;;
7233;SDS011;3658;47.992;10.158;2022-08-14T02:21:13;2.60;;;2.40;;
7233;SDS011;3658;47.992;10.158;2022-08-14T02:23:43;2.30;;;2.10;;
7233;SDS011;3658;47.992;10.158;2022-08-14T02:26:17;2.37;;;2.17;;
7233;SDS011;3658;47.992;10.158;2022-08-14T02:28:46;2.17;;;1.97;;
7233;SDS011;3658;47.992;10.158;2022-08-14T02:31:14;2.20;;;2.00;;
7233;SDS011;3658;47.992;10.158;2022-08-14T02:33:41;2.20;;;2.00;;
7233;SDS011;3658;47.992;10.158;2022-08-14T02:36:09;2.23;;;2.03;;
7233;SDS011;3658;47.992;10.158;2022-08-14T02:38:37;2.33;;;2.13;;
7233;SDS011;3658;47.992;10.158;2022-08-14T02:41:09;2.13;;;1.93;;
7233;SDS011;3658;47.992;10.158;2022-08-14T02:43:40;2.13;;;1.93;;
7233;SDS011;3658;47.992;10.158;2022-08-14T02:46:07;2.10;;;1.90;;
7233;SDS011;3658;47.992;10.158;2022-08-14T02:48:37;2.50;;;2.30;;
7233;SDS011;3658;47.992;10.158;2022-08-14T02:51:06;2.50;;;1.90;;
7233;SDS011;3658;47.992;10.158;2022-08-14T02:53:36;2.23;;;2.03;;
7233;SDS011;3658;47.992;10.158;2022-08-14T02:56:05;2.37;;;2.17;;
7233;SDS011;3658;47.992;10.158;2022-08-14T02:58:34;2.00;;;1.90;;
7233;SDS011;3658;47.992;10.158;2022-08-14T03:01:05;2.10;;;1.97;;
7233;SDS011;3658;47.992;10.158;2022-08-14T03:03:33;2.03;;;1.90;;
7233;SDS011;3658;47.992;10.158;2022-08-14T03:06:01;2.13;;;1.93;;
7233;SDS011;3658;47.992;10.158;2022-08-14T03:08:30;2.03;;;1.83;;
7233;SDS011;3658;47.992;10.158;2022-08-14T03:10:58;2.27;;;2.07;;
7233;SDS011;3658;47.992;10.158;2022-08-14T03:13:30;2.20;;;2.00;;
7233;SDS011;3658;47.992;10.158;2022-08-14T03:16:00;2.27;;;1.60;;
7233;SDS011;3658;47.992;10.158;2022-08-14T03:18:29;2.03;;;1.83;;
7233;SDS011;3658;47.992;10.158;2022-08-14T03:20:56;2.30;;;2.10;;
7233;SDS011;3658;47.992;10.158;2022-08-14T03:23:23;1.93;;;1.80;;
7233;SDS011;3658;47.992;10.158;2022-08-14T03:25:51;2.37;;;2.07;;
7233;SDS011;3658;47.992;10.158;2022-08-14T03:28:18;1.80;;;1.70;;
7233;SDS011;3658;47.992;10.158;2022-08-14T03:30:53;1.70;;;1.60;;
7233;SDS011;3658;47.992;10.158;2022-08-14T03:33:21;1.93;;;1.80;;
7233;SDS011;3658;47.992;10.158;2022-08-14T03:35:50;2.00;;;1.90;;
7233;SDS011;3658;47.992;10.158;2022-08-14T03:38:17;2.10;;;1.90;;
7233;SDS011;3658;47.992;10.158;2022-08-14T03:40:44;1.83;;;1.73;;
7233;SDS011;3658;47.992;10.158;2022-08-14T03:43:12;2.03;;;1.93;;
7233;SDS011;3658;47.992;10.158;2022-08-14T03:45:39;1.70;;;1.60;;
7233;SDS011;3658;47.992;10.158;2022-08-14T03:48:09;1.93;;;1.83;;
7233;SDS011;3658;47.992;10.158;2022-08-14T03:50:39;1.90;;;1.80;;
7233;SDS011;3658;47.992;10.158;2022-08-14T03:53:08;2.17;;;1.97;;
7233;SDS011;3658;47.992;10.158;2022-08-14T03:55:36;2.07;;;1.87;;
7233;SDS011;3658;47.992;10.158;2022-08-14T03:58:03;1.90;;;1.80;;
7233;SDS011;3658;47.992;10.158;2022-08-14T04:00:31;1.87;;;1.77;;
7233;SDS011;3658;47.992;10.158;2022-08-14T04:02:58;2.10;;;1.90;;
7233;SDS011;3658;47.992;10.158;2022-08-14T04:05:26;2.03;;;1.93;;
7233;SDS011;3658;47.992;10.158;2022-08-14T04:07:53;2.10;;;1.90;;
7233;SDS011;3658;47.992;10.158;2022-08-14T04:10:21;1.77;;;1.67;;
7233;SDS011;3658;47.992;10.158;2022-08-14T04:12:48;1.67;;;1.57;;
7233;SDS011;3658;47.992;10.158;2022-08-14T04:15:15;1.73;;;1.63;;
7233;SDS011;3658;47.992;10.158;2022-08-14T04:17:45;1.80;;;1.70;;
7233;SDS011;3658;47.992;10.158;2022-08-14T04:20:12;1.70;;;1.60;;
7233;SDS011;3658;47.992;10.158;2022-08-14T04:22:39;1.70;;;1.60;;
7233;SDS011;3658;47.992;10.158;2022-08-14T04:25:07;1.80;;;1.70;;
7233;SDS011;3658;47.992;10.158;2022-08-14T04:27:36;1.80;;;1.70;;
7233;SDS011;3658;47.992;10.158;2022-08-14T04:30:05;1.73;;;1.63;;
7233;SDS011;3658;47.992;10.158;2022-08-14T04:32:32;1.73;;;1.60;;
7233;SDS011;3658;47.992;10.158;2022-08-14T04:35:00;1.83;;;1.73;;
7233;SDS011;3658;47.992;10.158;2022-08-14T04:37:28;1.90;;;1.80;;
7233;SDS011;3658;47.992;10.158;2022-08-14T04:40:13;1.80;;;1.70;;
7233;SDS011;3658;47.992;10.158;2022-08-14T04:42:59;1.77;;;1.67;;
7233;SDS011;3658;47.992;10.158;2022-08-14T04:45:43;2.13;;;1.93;;
7233;SDS011;3658;47.992;10.158;2022-08-14T04:48:11;2.17;;;1.80;;
7233;SDS011;3658;47.992;10.158;2022-08-14T04:50:39;1.80;;;1.70;;
7233;SDS011;3658;47.992;10.158;2022-08-14T04:53:09;1.73;;;1.63;;
7233;SDS011;3658;47.992;10.158;2022-08-14T04:55:38;1.60;;;1.50;;
7233;SDS011;3658;47.992;10.158;2022-08-14T04:58:08;1.80;;;1.70;;
7233;SDS011;3658;47.992;10.158;2022-08-14T05:00:35;1.70;;;1.60;;
7233;SDS011;3658;47.992;10.158;2022-08-14T05:03:02;1.63;;;1.53;;
7233;SDS011;3658;47.992;10.158;2022-08-14T05:05:30;1.70;;;1.60;;
7233;SDS011;3658;47.992;10.158;2022-08-14T05:08:02;1.70;;;1.60;;
7233;SDS011;3658;47.992;10.158;2022-08-14T05:10:33;1.80;;;1.70;;
7233;SDS011;3658;47.992;10.158;2022-08-14T05:13:01;1.80;;;1.70;;
7233;SDS011;3658;47.992;10.158;2022-08-14T05:15:31;1.67;;;1.57;;
7233;SDS011;3658;47.992;10.158;2022-08-14T05:18:00;1.53;;;1.43;;
7233;SDS011;3658;47.992;10.158;2022-08-14T05:20:27;1.60;;;1.50;;
7233;SDS011;3658;47.992;10.158;2022-08-14T05:22:55;2.10;;;1.90;;
7233;SDS011;3658;47.992;10.158;2022-08-14T05:25:23;2.43;;;2.23;;
7233;SDS011;3658;47.992;10.158;2022-08-14T05:27:50;3.37;;;3.03;;
7233;SDS011;3658;47.992;10.158;2022-08-14T05:30:17;10.27;;;8.10;;
7233;SDS011;3658;47.992;10.158;2022-08-14T05:32:46;16.80;;;14.33;;
7233;SDS011;3658;47.992;10.158;2022-08-14T05:35:13;19.47;;;16.73;;
7233;SDS011;3658;47.992;10.158;2022-08-14T05:37:40;18.07;;;12.47;;
7233;SDS011;3658;47.992;10.158;2022-08-14T05:40:07;14.10;;;12.60;;
7233;SDS011;3658;47.992;10.158;2022-08-14T05:42:35;14.77;;;12.73;;
7233;SDS011;3658;47.992;10.158;2022-08-14T05:45:03;14.07;;;10.43;;
7233;SDS011;3658;47.992;10.158;2022-08-14T05:47:32;8.47;;;7.00;;
7233;SDS011;3658;47.992;10.158;2022-08-14T05:50:06;6.63;;;5.63;;
7233;SDS011;3658;47.992;10.158;2022-08-14T05:52:35;5.30;;;4.80;;
7233;SDS011;3658;47.992;10.158;2022-08-14T05:55:02;4.77;;;4.33;;
7233;SDS011;3658;47.992;10.158;2022-08-14T05:57:29;4.47;;;3.80;;
7233;SDS011;3658;47.992;10.158;2022-08-14T05:59:56;4.80;;;3.90;;
7233;SDS011;3658;47.992;10.158;2022-08-14T06:02:23;4.37;;;3.97;;
7233;SDS011;3658;47.992;10.158;2022-08-14T06:04:50;5.17;;;3.90;;
7233;SDS011;3658;47.992;10.158;2022-08-14T06:07:19;4.37;;;3.70;;
7233;SDS011;3658;47.992;10.158;2022-08-14T06:09:46;4.03;;;3.57;;
7233;SDS011;3658;47.992;10.158;2022-08-14T06:12:13;3.63;;;3.33;;
7233;SDS011;3658;47.992;10.158;2022-08-14T06:14:40;4.10;;;3.70;;
7233;SDS011;3658;47.992;10.158;2022-08-14T06:17:07;7.70;;;3.10;;
7233;SDS011;3658;47.992;10.158;2022-08-14T06:19:34;3.57;;;3.27;;
7233;SDS011;3658;47.992;10.158;2022-08-14T06:22:01;4.80;;;3.43;;
7233;SDS011;3658;47.992;10.158;2022-08-14T06:24:31;3.33;;;3.03;;
7233;SDS011;3658;47.992;10.158;2022-08-14T06:26:58;4.90;;;2.80;;
7233;SDS011;3658;47.992;10.158;2022-08-14T06:29:25;3.40;;;2.63;;
7233;SDS011;3658;47.992;10.158;2022-08-14T06:31:52;2.93;;;2.67;;
7233;SDS011;3658;47.992;10.158;2022-08-14T06:34:19;3.20;;;2.83;;
7233;SDS011;3658;47.992;10.158;2022-08-14T06:36:46;3.60;;;2.63;;
7233;SDS011;3658;47.992;10.158;2022-08-14T06:39:13;2.70;;;2.40;;
7233;SDS011;3658;47.992;10.158;2022-08-14T06:41:42;3.47;;;3.03;;
7233;SDS011;3658;47.992;10.158;2022-08-14T06:44:09;2.80;;;2.50;;
7233;SDS011;3658;47.992;10.158;2022-08-14T06:46:36;3.60;;;2.73;;
7233;SDS011;3658;47.992;10.158;2022-08-14T06:49:04;2.93;;;2.73;;
7233;SDS011;3658;47.992;10.158;2022-08-14T06:51:31;2.80;;;2.60;;
7233;SDS011;3658;47.992;10.158;2022-08-14T06:54:02;5.83;;;2.97;;
7233;SDS011;3658;47.992;10.158;2022-08-14T06:56:33;3.57;;;3.07;;
7233;SDS011;3658;47.992;10.158;2022-08-14T06:59:01;2.70;;;2.50;;
7233;SDS011;3658;47.992;10.158;2022-08-14T07:01:29;2.80;;;2.60;;
7233;SDS011;3658;47.992;10.158;2022-08-14T07:04:13;3.70;;;2.60;;
7233;SDS011;3658;47.992;10.158;2022-08-14T07:06:57;3.20;;;2.90;;
7233;SDS011;3658;47.992;10.158;2022-08-14T07:09:25;2.73;;;2.53;;
7233;SDS011;3658;47.992;10.158;2022-08-14T07:11:53;3.03;;;2.80;;
7233;SDS011;3658;47.992;10.158;2022-08-14T07:14:21;3.33;;;2.87;;
7233;SDS011;3658;47.992;10.158;2022-08-14T07:16:48;2.50;;;2.30;;
7233;SDS011;3658;47.992;10.158;2022-08-14T07:19:16;2.97;;;2.50;;
7233;SDS011;3658;47.992;10.158;2022-08-14T07:21:43;2.70;;;2.50;;
7233;SDS011;3658;47.992;10.158;2022-08-14T07:24:10;2.70;;;2.50;;
7233;SDS011;3658;47.992;10.158;2022-08-14T07:26:37;2.67;;;2.47;;
7233;SDS011;3658;47.992;10.158;2022-08-14T07:29:05;3.43;;;2.80;;
7233;SDS011;3658;47.992;10.158;2022-08-14T07:31:34;2.80;;;2.27;;
7233;SDS011;3658;47.992;10.158;2022-08-14T07:34:01;2.60;;;2.40;;
7233;SDS011;3658;47.992;10.158;2022-08-14T07:36:28;2.70;;;2.50;;
7233;SDS011;3658;47.992;10.158;2022-08-14T07:38:55;2.90;;;2.70;;
7233;SDS011;3658;47.992;10.158;2022-08-14T07:41:22;3.10;;;2.80;;
7233;SDS011;3658;47.992;10.158;2022-08-14T07:43:49;4.07;;;2.70;;
7233;SDS011;3658;47.992;10.158;2022-08-14T07:46:16;4.57;;;2.90;;
7233;SDS011;3658;47.992;10.158;2022-08-14T07:48:44;3.10;;;2.80;;
7233;SDS011;3658;47.992;10.158;2022-08-14T07:51:12;3.27;;;2.80;;
7233;SDS011;3658;47.992;10.158;2022-08-14T07:53:39;2.60;;;2.40;;
7233;SDS011;3658;47.992;10.158;2022-08-14T07:56:06;3.00;;;2.70;;
7233;SDS011;3658;47.992;10.158;2022-08-14T07:58:34;2.67;;;2.47;;
7233;SDS011;3658;47.992;10.158;2022-08-14T08:01:02;2.70;;;2.50;;
7233;SDS011;3658;47.992;10.158;2022-08-14T08:03:31;2.80;;;2.43;;
7233;SDS011;3658;47.992;10.158;2022-08-14T08:06:01;2.60;;;2.40;;
7233;SDS011;3658;47.992;10.158;2022-08-14T08:08:29;2.80;;;2.50;;
7233;SDS011;3658;47.992;10.158;2022-08-14T08:10:57;3.00;;;2.30;;
7233;SDS011;3658;47.992;10.158;2022-08-14T08:13:24;2.63;;;2.43;;
7233;SDS011;3658;47.992;10.158;2022-08-14T08:15:56;2.93;;;2.67;;
7233;SDS011;3658;47.992;10.158;2022-08-14T08:18:24;2.30;;;2.10;;
7233;SDS011;3658;47.992;10.158;2022-08-14T08:20:53;2.73;;;2.53;;
7233;SDS011;3658;47.992;10.158;2022-08-14T08:23:22;2.77;;;2.57;;
7233;SDS011;3658;47.992;10.158;2022-08-14T08:25:50;2.73;;;2.50;;
7233;SDS011;3658;47.992;10.158;2022-08-14T08:28:18;3.20;;;2.90;;
7233;SDS011;3658;47.992;10.158;2022-08-14T08:30:48;4.83;;;3.37;;
7233;SDS011;3658;47.992;10.158;2022-08-14T08:33:16;4.30;;;3.90;;
7233;SDS011;3658;47.992;10.158;2022-08-14T08:35:44;7.27;;;4.43;;
7233;SDS011;3658;47.992;10.158;2022-08-14T08:38:12;4.27;;;3.87;;
7233;SDS011;3658;47.992;10.158;2022-08-14T08:40:43;4.03;;;3.67;;
7233;SDS011;3658;47.992;10.158;2022-08-14T08:43:16;4.20;;;3.50;;
7233;SDS011;3658;47.992;10.158;2022-08-14T08:45:51;3.37;;;3.07;;
7233;SDS011;3658;47.992;10.158;2022-08-14T08:48:19;6.33;;;3.50;;
7233;SDS011;3658;47.992;10.158;2022-08-14T08:50:48;4.80;;;3.40;;
7233;SDS011;3658;47.992;10.158;2022-08-14T08:53:15;3.53;;;3.23;;
7233;SDS011;3658;47.992;10.158;2022-08-14T08:55:44;3.80;;;3.33;;
7233;SDS011;3658;47.992;10.158;2022-08-14T08:58:12;3.43;;;2.93;;
7233;SDS011;3658;47.992;10.158;2022-08-14T09:00:41;9.13;;;3.87;;
7233;SDS011;3658;47.992;10.158;2022-08-14T09:03:13;14.37;;;3.27;;
7233;SDS011;3658;47.992;10.158;2022-08-14T09:05:48;12.93;;;3.40;;
7233;SDS011;3658;47.992;10.158;2022-08-14T09:08:16;7.03;;;3.43;;
7233;SDS011;3658;47.992;10.158;2022-08-14T09:10:46;5.63;;;3.20;;
7233;SDS011;3658;47.992;10.158;2022-08-14T09:13:14;5.50;;;3.03;;
7233;SDS011;3658;47.992;10.158;2022-08-14T09:15:41;5.90;;;3.20;;
7233;SDS011;3658;47.992;10.158;2022-08-14T09:18:11;7.60;;;3.20;;
7233;SDS011;3658;47.992;10.158;2022-08-14T09:20:39;3.90;;;2.90;;
7233;SDS011;3658;47.992;10.158;2022-08-14T09:23:07;6.77;;;2.80;;
7233;SDS011;3658;47.992;10.158;2022-08-14T09:25:35;4.00;;;3.33;;
7233;SDS011;3658;47.992;10.158;2022-08-14T09:28:05;4.57;;;3.07;;
7233;SDS011;3658;47.992;10.158;2022-08-14T09:30:34;5.27;;;3.57;;
7233;SDS011;3658;47.992;10.158;2022-08-14T09:33:24;3.90;;;2.77;;
7233;SDS011;3658;47.992;10.158;2022-08-14T09:36:21;5.67;;;2.97;;
7233;SDS011;3658;47.992;10.158;2022-08-14T09:39:00;3.37;;;2.80;;
7233;SDS011;3658;47.992;10.158;2022-08-14T09:41:38;3.70;;;3.00;;
7233;SDS011;3658;47.992;10.158;2022-08-14T09:44:16;3.00;;;2.70;;
7233;SDS011;3658;47.992;10.158;2022-08-14T09:46:55;5.43;;;2.80;;
7233;SDS011;3658;47.992;10.158;2022-08-14T09:49:30;3.50;;;2.60;;
7233;SDS011;3658;47.992;10.158;2022-08-14T09:52:02;3.57;;;2.67;;
7233;SDS011;3658;47.992;10.158;2022-08-14T09:54:34;3.40;;;2.80;;
7233;SDS011;3658;47.992;10.158;2022-08-14T09:57:03;3.77;;;2.57;;
7233;SDS011;3658;47.992;10.158;2022-08-14T09:59:42;6.43;;;2.90;;
7233;SDS011;3658;47.992;10.158;2022-08-14T10:04:59;3.07;;;2.53;;
7233;SDS011;3658;47.992;10.158;2022-08-14T10:07:30;3.33;;;2.57;;
7233;SDS011;3658;47.992;10.158;2022-08-14T10:09:58;3.60;;;2.60;;
7233;SDS011;3658;47.992;10.158;2022-08-14T10:12:39;4.23;;;2.50;;
7233;SDS011;3658;47.992;10.158;2022-08-14T10:15:19;3.07;;;2.43;;
7233;SDS011;3658;47.992;10.158;2022-08-14T10:17:49;3.77;;;2.73;;
7233;SDS011;3658;47.992;10.158;2022-08-14T10:20:34;2.70;;;2.47;;
7233;SDS011;3658;47.992;10.158;2022-08-14T10:23:12;3.87;;;2.67;;
7233;SDS011;3658;47.992;10.158;2022-08-14T10:25:40;3.67;;;2.80;;
7233;SDS011;3658;47.992;10.158;2022-08-14T10:28:09;4.30;;;2.40;;
7233;SDS011;3658;47.992;10.158;2022-08-14T10:30:42;3.13;;;2.50;;
7233;SDS011;3658;47.992;10.158;2022-08-14T10:33:22;3.70;;;2.40;;
7233;SDS011;3658;47.992;10.158;2022-08-14T10:35:50;2.80;;;2.60;;
7233;SDS011;3658;47.992;10.158;2022-08-14T10:38:25;2.90;;;2.50;;
7233;SDS011;3658;47.992;10.158;2022-08-14T10:40:53;3.97;;;2.20;;
7233;SDS011;3658;47.992;10.158;2022-08-14T10:43:20;2.63;;;2.10;;
7233;SDS011;3658;47.992;10.158;2022-08-14T10:45:54;2.60;;;2.20;;
7233;SDS011;3658;47.992;10.158;2022-08-14T10:48:25;2.47;;;2.20;;
7233;SDS011;3658;47.992;10.158;2022-08-14T10:50:52;2.60;;;2.40;;
7233;SDS011;3658;47.992;10.158;2022-08-14T10:53:28;2.70;;;2.50;;
7233;SDS011;3658;47.992;10.158;2022-08-14T10:56:00;2.43;;;2.20;;
7233;SDS011;3658;47.992;10.158;2022-08-14T10:58:30;2.60;;;2.40;;
7233;SDS011;3658;47.992;10.158;2022-08-14T11:01:00;2.63;;;2.40;;
7233;SDS011;3658;47.992;10.158;2022-08-14T11:03:36;3.87;;;2.13;;
7233;SDS011;3658;47.992;10.158;2022-08-14T11:06:12;2.23;;;2.03;;
7233;SDS011;3658;47.992;10.158;2022-08-14T11:08:43;2.50;;;2.30;;
7233;SDS011;3658;47.992;10.158;2022-08-14T11:11:12;2.60;;;2.40;;
7233;SDS011;3658;47.992;10.158;2022-08-14T11:13:40;2.93;;;2.00;;
7233;SDS011;3658;47.992;10.158;2022-08-14T11:16:13;2.37;;;2.17;;
7233;SDS011;3658;47.992;10.158;2022-08-14T11:18:44;2.50;;;2.30;;
7233;SDS011;3658;47.992;10.158;2022-08-14T11:21:13;3.30;;;2.10;;
7233;SDS011;3658;47.992;10.158;2022-08-14T11:23:43;2.23;;;1.90;;
7233;SDS011;3658;47.992;10.158;2022-08-14T11:26:12;2.00;;;1.80;;
7233;SDS011;3658;47.992;10.158;2022-08-14T11:28:43;2.47;;;2.23;;
7233;SDS011;3658;47.992;10.158;2022-08-14T11:31:14;2.40;;;2.20;;
7233;SDS011;3658;47.992;10.158;2022-08-14T11:33:47;2.33;;;2.13;;
7233;SDS011;3658;47.992;10.158;2022-08-14T11:36:15;2.30;;;2.10;;
7233;SDS011;3658;47.992;10.158;2022-08-14T11:38:43;2.70;;;2.00;;
7233;SDS011;3658;47.992;10.158;2022-08-14T11:41:12;2.20;;;2.00;;
7233;SDS011;3658;47.992;10.158;2022-08-14T11:43:40;2.20;;;2.00;;
7233;SDS011;3658;47.992;10.158;2022-08-14T11:46:08;2.20;;;2.00;;
7233;SDS011;3658;47.992;10.158;2022-08-14T11:48:45;1.93;;;1.77;;
7233;SDS011;3658;47.992;10.158;2022-08-14T11:51:13;2.30;;;2.10;;
7233;SDS011;3658;47.992;10.158;2022-08-14T11:53:48;2.97;;;1.90;;
7233;SDS011;3658;47.992;10.158;2022-08-14T11:56:17;2.00;;;1.90;;
7233;SDS011;3658;47.992;10.158;2022-08-14T11:58:51;1.90;;;1.80;;
7233;SDS011;3658;47.992;10.158;2022-08-14T12:01:25;2.13;;;1.90;;
7233;SDS011;3658;47.992;10.158;2022-08-14T12:04:06;2.13;;;1.93;;
7233;SDS011;3658;47.992;10.158;2022-08-14T12:06:43;2.23;;;2.03;;
7233;SDS011;3658;47.992;10.158;2022-08-14T12:09:13;1.80;;;1.70;;
7233;SDS011;3658;47.992;10.158;2022-08-14T12:11:52;1.70;;;1.60;;
7233;SDS011;3658;47.992;10.158;2022-08-14T12:14:20;2.30;;;2.10;;
7233;SDS011;3658;47.992;10.158;2022-08-14T12:16:56;1.93;;;1.83;;
7233;SDS011;3658;47.992;10.158;2022-08-14T12:19:25;2.00;;;1.90;;
7233;SDS011;3658;47.992;10.158;2022-08-14T12:21:53;2.40;;;2.20;;
7233;SDS011;3658;47.992;10.158;2022-08-14T12:24:26;2.03;;;1.83;;
7233;SDS011;3658;47.992;10.158;2022-08-14T12:26:54;2.20;;;2.00;;
7233;SDS011;3658;47.992;10.158;2022-08-14T12:29:22;2.10;;;1.90;;
7233;SDS011;3658;47.992;10.158;2022-08-14T12:31:56;1.90;;;1.80;;
7233;SDS011;3658;47.992;10.158;2022-08-14T12:34:30;1.90;;;1.80;;
7233;SDS011;3658;47.992;10.158;2022-08-14T12:37:02;2.10;;;1.90;;
7233;SDS011;3658;47.992;10.158;2022-08-14T12:39:30;1.70;;;1.60;;
7233;SDS011;3658;47.992;10.158;2022-08-14T12:41:58;1.67;;;1.57;;
7233;SDS011;3658;47.992;10.158;2022-08-14T12:44:31;2.00;;;1.80;;
7233;SDS011;3658;47.992;10.158;2022-08-14T12:47:02;1.83;;;1.73;;
7233;SDS011;3658;47.992;10.158;2022-08-14T12:49:33;1.80;;;1.70;;
7233;SDS011;3658;47.992;10.158;2022-08-14T12:52:00;1.80;;;1.70;;
7233;SDS011;3658;47.992;10.158;2022-08-14T12:54:28;1.93;;;1.73;;
7233;SDS011;3658;47.992;10.158;2022-08-14T12:57:02;2.17;;;1.90;;
7233;SDS011;3658;47.992;10.158;2022-08-14T12:59:30;1.90;;;1.80;;
7233;SDS011;3658;47.992;10.158;2022-08-14T13:01:58;1.80;;;1.70;;
7233;SDS011;3658;47.992;10.158;2022-08-14T13:04:26;1.70;;;1.60;;
7233;SDS011;3658;47.992;10.158;2022-08-14T13:06:59;2.03;;;1.80;;
7233;SDS011;3658;47.992;10.158;2022-08-14T13:09:32;1.60;;;1.50;;
7233;SDS011;3658;47.992;10.158;2022-08-14T13:12:00;1.87;;;1.77;;
7233;SDS011;3658;47.992;10.158;2022-08-14T13:14:29;1.70;;;1.60;;
7233;SDS011;3658;47.992;10.158;2022-08-14T13:16:58;1.90;;;1.80;;
7233;SDS011;3658;47.992;10.158;2022-08-14T13:19:27;2.10;;;1.90;;
7233;SDS011;3658;47.992;10.158;2022-08-14T13:21:56;1.60;;;1.50;;
7233;SDS011;3658;47.992;10.158;2022-08-14T13:24:23;1.70;;;1.60;;
7233;SDS011;3658;47.992;10.158;2022-08-14T13:26:51;1.67;;;1.57;;
7233;SDS011;3658;47.992;10.158;2022-08-14T13:29:21;2.10;;;1.97;;
7233;SDS011;3658;47.992;10.158;2022-08-14T13:31:50;1.70;;;1.60;;
7233;SDS011;3658;47.992;10.158;2022-08-14T13:34:19;1.57;;;1.47;;
7233;SDS011;3658;47.992;10.158;2022-08-14T13:36:47;1.63;;;1.53;;
7233;SDS011;3658;47.992;10.158;2022-08-14T13:39:16;1.80;;;1.70;;
7233;SDS011;3658;47.992;10.158;2022-08-14T13:41:47;1.60;;;1.50;;
7233;SDS011;3658;47.992;10.158;2022-08-14T13:44:15;1.60;;;1.50;;
7233;SDS011;3658;47.992;10.158;2022-08-14T13:46:45;1.60;;;1.50;;
7233;SDS011;3658;47.992;10.158;2022-08-14T13:49:12;1.50;;;1.40;;
7233;SDS011;3658;47.992;10.158;2022-08-14T13:51:40;2.13;;;1.60;;
7233;SDS011;3658;47.992;10.158;2022-08-14T13:54:11;1.60;;;1.50;;
7233;SDS011;3658;47.992;10.158;2022-08-14T13:56:45;1.80;;;1.70;;
7233;SDS011;3658;47.992;10.158;2022-08-14T13:59:13;1.60;;;1.50;;
7233;SDS011;3658;47.992;10.158;2022-08-14T14:01:41;1.47;;;1.37;;
7233;SDS011;3658;47.992;10.158;2022-08-14T14:04:12;1.70;;;1.60;;
7233;SDS011;3658;47.992;10.158;2022-08-14T14:06:40;1.50;;;1.40;;
7233;SDS011;3658;47.992;10.158;2022-08-14T14:09:10;1.70;;;1.60;;
7233;SDS011;3658;47.992;10.158;2022-08-14T14:11:42;1.50;;;1.40;;
7233;SDS011;3658;47.992;10.158;2022-08-14T14:14:09;1.60;;;1.50;;
7233;SDS011;3658;47.992;10.158;2022-08-14T14:16:37;1.40;;;1.30;;
7233;SDS011;3658;47.992;10.158;2022-08-14T14:19:05;1.87;;;1.60;;
7233;SDS011;3658;47.992;10.158;2022-08-14T14:21:32;1.63;;;1.53;;
7233;SDS011;3658;47.992;10.158;2022-08-14T14:23:59;1.80;;;1.70;;
7233;SDS011;3658;47.992;10.158;2022-08-14T14:26:27;1.60;;;1.50;;
7233;SDS011;3658;47.992;10.158;2022-08-14T14:28:56;1.70;;;1.60;;
7233;SDS011;3658;47.992;10.158;2022-08-14T14:31:26;1.53;;;1.43;;
7233;SDS011;3658;47.992;10.158;2022-08-14T14:33:54;1.80;;;1.40;;
7233;SDS011;3658;47.992;10.158;2022-08-14T14:36:24;1.60;;;1.50;;
7233;SDS011;3658;47.992;10.158;2022-08-14T14:38:52;1.70;;;1.60;;
7233;SDS011;3658;47.992;10.158;2022-08-14T14:41:22;2.57;;;1.63;;
7233;SDS011;3658;47.992;10.158;2022-08-14T14:43:51;2.10;;;1.90;;
7233;SDS011;3658;47.992;10.158;2022-08-14T14:46:21;4.67;;;2.17;;
7233;SDS011;3658;47.992;10.158;2022-08-14T14:48:49;7.23;;;2.47;;
7233;SDS011;3658;47.992;10.158;2022-08-14T14:51:16;14.93;;;3.20;;
7233;SDS011;3658;47.992;10.158;2022-08-14T14:53:46;11.93;;;2.60;;
7233;SDS011;3658;47.992;10.158;2022-08-14T14:56:13;13.60;;;2.37;;
7233;SDS011;3658;47.992;10.158;2022-08-14T14:58:41;5.90;;;1.90;;
7233;SDS011;3658;47.992;10.158;2022-08-14T15:01:09;7.10;;;2.60;;
7233;SDS011;3658;47.992;10.158;2022-08-14T15:03:49;4.40;;;2.10;;
7233;SDS011;3658;47.992;10.158;2022-08-14T15:06:18;11.43;;;2.20;;
7233;SDS011;3658;47.992;10.158;2022-08-14T15:08:45;8.23;;;2.10;;
7233;SDS011;3658;47.992;10.158;2022-08-14T15:11:13;5.53;;;2.10;;
7233;SDS011;3658;47.992;10.158;2022-08-14T15:13:41;3.87;;;2.23;;
7233;SDS011;3658;47.992;10.158;2022-08-14T15:16:08;2.60;;;2.10;;
7233;SDS011;3658;47.992;10.158;2022-08-14T15:18:35;5.57;;;2.17;;